Weather observations for the past three days for
McAllen, Miller International Airport
Metric (Imperial)
Date Time (cdt) Wind (kph) Vis. (km) Weather Sky Cond. Temperature (ºC) Relative Humidity Wind Chill (°C) Heat Index (°C) Pressure Precipitation (cm)
Air Dwpt 6 hour altimeter (cm) sea level (mb) 1 hr 3 hr 6 hr
Max. Min.
04 16:53 SE 26 G 43 16.09 A Few Clouds FEW070 39.4 21.7 36% 45 75.67 1008.6
04 15:53 SE 22 G 35 16.09 Fair CLR 40.6 19.4 29% 44 75.69 1009.0
04 14:53 SE 22 G 37 16.09 Fair CLR 39.4 21.7 36% 45 75.74 1009.4
04 13:53 SE 20 G 33 16.09 Fair CLR 38.9 21.7 37% 44 75.79 1010.2
04 12:53 S 22 G 35 16.09 Fair CLR 37.8 21.1 37.8 28.3 38% 42 75.87 1011.1
04 11:53 SE 22 G 37 16.09 Fair CLR 36.1 22.8 46% 42 75.92 1011.8
04 10:53 S 24 G 43 16.09 Fair CLR 33.9 23.9 56% 40 75.92 1012.1
04 09:53 S 22 G 41 16.09 Partly Cloudy SCT022 31.7 24.4 65% 38 75.92 1012.0
04 08:53 SE 24 16.09 A Few Clouds FEW016 30 25 75% 36 75.92 1011.8
04 07:53 SE 13 16.09 Fair CLR 28.3 25 82% 33 75.9 1011.6
04 06:53 SE 15 16.09 Fair CLR 28.3 25 30 28.3 82% 33 75.84 1010.8
04 05:53 SE 15 16.09 Fair CLR 28.3 25 82% 33 75.82 1010.6
04 04:53 SE 19 16.09 Fair CLR 28.9 25 80% 34 75.82 1010.6
04 03:53 SE 13 16.09 Fair CLR 29.4 25 77% 35 75.84 1010.7
04 02:53 S 20 16.09 Fair CLR 29.4 25 77% 35 75.87 1011.0
04 01:53 SE 24 16.09 Mostly Cloudy BKN022 30 25 75% 36 75.9 1011.4
04 00:53 SE 24 16.09 A Few Clouds FEW021 30 25 35.6 30 75% 36 75.9 1011.4
03 23:53 SE 22 16.09 Fair CLR 30.6 25 72% 37 75.92 1011.7
03 22:53 SE 31 G 43 16.09 A Few Clouds FEW025 FEW031 30.6 25 72% 37 75.9 1011.4
03 21:53 SE 30 16.09 Fair CLR 31.1 24.4 68% 37 75.84 1010.8
03 20:53 SE 37 G 48 16.09 Fair and Breezy CLR 31.7 23.9 63% 37 75.79 1010.2
03 19:53 SE 41 G 48 16.09 Fair and Breezy CLR 33.3 23.9 58% 39 75.72 1009.4
03 17:53 E 30 G 50 16.09 Fair CLR 37.8 22.2 41% 43 75.64 1008.0
03 16:53 SE 26 G 39 16.09 Fair CLR 40 20.6 33% 44 75.59 1007.5
03 15:53 SE 24 G 35 16.09 A Few Clouds FEW065 40 21.7 35% 45 75.62 1007.8
03 13:53 S 15 G 33 16.09 Fair CLR 38.3 21.7 38% 43 75.74 1009.6
03 12:53 S 13 G 37 16.09 Fair CLR 37.8 21.7 38.3 28.3 39% 43 75.82 1010.7
03 11:53 SE 28 16.09 Fair CLR 36.7 22.2 43% 42 75.92 1011.7
03 10:53 S 28 G 44 16.09 Fair CLR 34.4 23.3 52% 40 75.92 1011.8
03 09:53 S 24 G 41 16.09 Fair CLR 32.2 24.4 63% 39 75.95 1012.3
03 08:53 S 20 G 31 16.09 Fair CLR 30 25 75% 36 75.95 1012.4
03 07:53 SE 15 16.09 Fair CLR 28.3 25 82% 33 75.95 1012.2
03 06:53 S 17 16.09 Fair CLR 28.3 25 30 28.3 82% 33 75.92 1011.9
03 05:53 SE 20 16.09 Fair CLR 28.9 25 80% 34 75.92 1011.7
03 04:53 S 19 16.09 Fair CLR 28.9 25 80% 34 75.92 1011.8
03 03:53 S 24 G 39 16.09 Fair CLR 29.4 25 77% 35 75.95 1012.2
03 02:53 SE 24 16.09 Fair CLR 29.4 25 77% 35 75.95 1012.3
03 01:53 S 26 G 43 16.09 Fair CLR 30 25 75% 36 75.97 1012.5
03 00:53 SE 28 G 43 16.09 Fair CLR 30 25 36.7 30 75% 36 76 1012.7
02 23:53 SE 28 G 41 16.09 Fair CLR 30.6 25 72% 37 76 1012.9
02 22:53 SE 28 G 41 16.09 A Few Clouds FEW024 30.6 25 72% 37 76 1013.0
02 21:53 SE 26 G 43 16.09 Fair CLR 31.1 25 70% 38 75.95 1012.4
02 20:53 SE 37 G 48 16.09 Fair and Breezy CLR 32.2 24.4 63% 39 75.84 1011.0
02 19:53 SE 33 16.09 Fair and Breezy CLR 33.9 22.2 50% 38 75.79 1010.2
02 18:53 SE 33 16.09 Fair and Breezy CLR 36.7 21.1 41.1 36.7 40% 41 75.74 1009.7
02 17:53 SE 26 16.09 Fair CLR 38.3 18.3 31% 40 75.74 1009.7
02 16:53 S 26 G 39 16.09 Fair CLR 40 20.6 33% 44 75.74 1009.6
02 15:53 SE 24 G 35 16.09 A Few Clouds FEW075 40 21.1 34% 45 75.79 1010.0
02 14:53 E 11 G 31 16.09 Fair CLR 39.4 20 32% 43 75.87 1011.1
02 13:53 S 19 G 33 16.09 Fair CLR 38.9 20.6 35% 43 75.95 1012.1
02 12:53 SE 20 G 35 16.09 Fair CLR 37.2 21.7 37.8 27.8 41% 42 76.02 1013.2
02 11:53 SE 20 G 31 16.09 Fair CLR 36.1 22.8 46% 42 76.07 1013.9
02 10:53 SE 24 G 37 16.09 Fair CLR 34.4 23.9 54% 41 76.1 1014.4
02 09:53 S 26 G 39 16.09 Fair CLR 32.2 24.4 63% 39 76.1 1014.4
02 08:53 S 17 16.09 A Few Clouds FEW016 29.4 25 77% 35 76.1 1014.5
02 07:53 SE 11 16.09 Fair CLR 28.3 25 82% 33 76.07 1014.0
02 06:53 SE 13 16.09 Fair CLR 27.8 25 30 27.8 85% 32 76.05 1013.7
02 05:53 S 17 16.09 Fair CLR 28.3 25 82% 33 76.02 1013.4
02 04:53 S 17 16.09 Fair CLR 28.9 25 80% 34 76.05 1013.4
02 03:53 SE 22 16.09 A Few Clouds FEW019 28.9 25 80% 34 76.02 1013.4
02 02:53 S 19 16.09 Fair CLR 29.4 25 77% 35 76.05 1013.7
02 01:53 S 19 16.09 Fair CLR 29.4 25 77% 35 76.1 1014.3
02 00:53 SE 26 16.09 Fair CLR 29.4 25 36.7 29.4 77% 35 76.12 1014.5
01 23:53 SE 26 16.09 Fair CLR 30 25 75% 36 76.12 1014.6
01 22:53 SE 22 16.09 A Few Clouds FEW023 30 25 75% 36 76.1 1014.3
01 21:53 SE 22 16.09 Fair CLR 31.1 24.4 68% 37 76.02 1013.3
01 20:53 SE 31 16.09 Fair CLR 32.2 23.3 59% 37 75.95 1012.2
01 19:53 SE 28 16.09 Fair CLR 34.4 20.6 44% 37 75.87 1011.2
01 18:53 SE 35 G 43 16.09 Fair and Breezy CLR 36.7 20 40.6 36.7 38% 40 75.82 1010.5
01 17:53 SE 31 G 43 16.09 Fair CLR 38.9 18.3 30% 41 75.79 1010.1
Date Time (cdt) Wind (kph) Vis. (km) Weather Sky Cond. Air Dwpt Max. Min. Relative Humidity Wind Chill (°C) Heat Index (°C) altimeter (cm) sea level (mb) 1 hr 3 hr 6 hr
6 hour
Temperature (ºC) Pressure Precipitation (cm)